Time;durP1;ratioP1;P1;durP2;ratioP2;P2;SDS_P1;SDS_P2;PMS_P1;PMS_P2;Temp;Humidity;BMP_temperature;BMP_pressure;BME280_temperature;BME280_humidity;BME280_pressure;Samples;Min_cycle;Max_cycle;Signal;HPM_P1;HPM_P2
2023/08/12 00:00:14;;;;;;;5.95;5.10;;;;;;;;;;5030589;28;20049;-83
2023/08/12 00:02:43;;;;;;;6.32;4.50;;;;;;;;;;5032729;28;20033;-83
2023/08/12 00:05:10;;;;;;;8.02;4.70;;;;;;;;;;5033060;28;20060;-83
2023/08/12 00:07:36;;;;;;;9.07;4.75;;;;;;;;;;5034068;28;20037;-84
2023/08/12 00:10:03;;;;;;;7.10;4.70;;;;;;;;;;5012939;28;20397;-84
2023/08/12 00:12:29;;;;;;;7.90;5.13;;;;;;;;;;5028963;28;20045;-83
2023/08/12 00:14:55;;;;;;;7.22;4.45;;;;;;;;;;5034081;28;20017;-84
2023/08/12 00:17:21;;;;;;;6.40;4.82;;;;;;;;;;5033295;28;20124;-84
2023/08/12 00:19:46;;;;;;;6.38;4.53;;;;;;;;;;5033712;28;20033;-84
2023/08/12 00:22:12;;;;;;;7.50;4.40;;;;;;;;;;5032816;28;20043;-85
2023/08/12 00:24:38;;;;;;;6.15;4.68;;;;;;;;;;5032902;28;20068;-84
2023/08/12 00:27:04;;;;;;;6.35;4.10;;;;;;;;;;5033971;28;20453;-85
2023/08/12 00:29:29;;;;;;;8.73;5.40;;;;;;;;;;5032200;28;20110;-84
2023/08/12 00:31:55;;;;;;;8.27;5.15;;;;;;;;;;5033438;28;20034;-84
2023/08/12 00:34:21;;;;;;;8.48;4.55;;;;;;;;;;5032134;28;20048;-84
2023/08/12 00:36:46;;;;;;;6.50;4.55;;;;;;;;;;5033516;28;20025;-84
2023/08/12 00:39:12;;;;;;;7.13;5.05;;;;;;;;;;5045234;28;20060;-84
2023/08/12 00:41:38;;;;;;;6.30;4.40;;;;;;;;;;5015329;28;20122;-84
2023/08/12 00:44:04;;;;;;;6.70;5.07;;;;;;;;;;5033195;28;20053;-84
2023/08/12 00:46:29;;;;;;;13.50;7.82;;;;;;;;;;5033834;28;20574;-84
2023/08/12 00:48:55;;;;;;;6.75;5.03;;;;;;;;;;5028878;28;20026;-84
2023/08/12 00:51:20;;;;;;;7.70;5.20;;;;;;;;;;5015906;28;20056;-84
2023/08/12 00:53:46;;;;;;;6.78;4.97;;;;;;;;;;5033326;28;20025;-84
2023/08/12 00:56:11;;;;;;;9.30;5.13;;;;;;;;;;5029836;28;20025;-84
2023/08/12 00:58:37;;;;;;;6.45;4.85;;;;;;;;;;5027120;28;20021;-85
2023/08/12 01:01:03;;;;;;;7.00;4.28;;;;;;;;;;5006113;28;20112;-83
2023/08/12 01:03:29;;;;;;;5.78;4.60;;;;;;;;;;5031068;28;20460;-85
2023/08/12 01:05:55;;;;;;;9.32;5.10;;;;;;;;;;5030762;28;20033;-84
2023/08/12 01:08:20;;;;;;;7.65;4.93;;;;;;;;;;5032815;28;20138;-84
2023/08/12 01:10:48;;;;;;;7.95;4.68;;;;;;;;;;5031106;28;20548;-85
2023/08/12 01:13:18;;;;;;;7.32;5.70;;;;;;;;;;5032794;28;20036;-84
2023/08/12 01:15:44;;;;;;;10.13;5.30;;;;;;;;;;4999409;28;20462;-84
2023/08/12 01:18:09;;;;;;;8.10;4.80;;;;;;;;;;5031265;28;20144;-84
2023/08/12 01:20:34;;;;;;;6.55;4.50;;;;;;;;;;5032133;28;20060;-83
2023/08/12 01:23:13;;;;;;;6.32;4.47;;;;;;;;;;4995416;28;20033;-84
2023/08/12 01:25:39;;;;;;;6.38;4.25;;;;;;;;;;5025438;28;20045;-84
2023/08/12 01:28:04;;;;;;;7.18;4.80;;;;;;;;;;5031345;28;20030;-84
2023/08/12 01:30:30;;;;;;;6.10;4.38;;;;;;;;;;5030971;28;20432;-84
2023/08/12 01:33:05;;;;;;;11.13;4.70;;;;;;;;;;5014556;28;20030;-84
2023/08/12 01:35:41;;;;;;;9.13;4.53;;;;;;;;;;5048779;28;20041;-84
2023/08/12 01:38:06;;;;;;;9.30;4.38;;;;;;;;;;5014240;28;20057;-85
2023/08/12 01:40:32;;;;;;;8.18;4.60;;;;;;;;;;5015504;28;20029;-84
2023/08/12 01:42:58;;;;;;;6.13;4.22;;;;;;;;;;5030924;28;20041;-85
2023/08/12 01:45:23;;;;;;;7.85;4.90;;;;;;;;;;5011483;28;20034;-84
2023/08/12 01:47:50;;;;;;;6.70;5.03;;;;;;;;;;5016158;28;20041;-84
2023/08/12 01:50:16;;;;;;;6.28;4.45;;;;;;;;;;5012111;28;20661;-85
2023/08/12 01:52:41;;;;;;;6.50;4.30;;;;;;;;;;5013397;28;20067;-84
2023/08/12 01:55:07;;;;;;;5.30;4.35;;;;;;;;;;5030886;28;20492;-84
2023/08/12 01:57:33;;;;;;;8.63;4.47;;;;;;;;;;5030555;28;20507;-84
2023/08/12 01:59:58;;;;;;;8.82;4.65;;;;;;;;;;5030847;28;20025;-84
2023/08/12 02:02:24;;;;;;;9.52;4.35;;;;;;;;;;5022501;28;20033;-83
2023/08/12 02:04:49;;;;;;;6.20;4.28;;;;;;;;;;5011981;28;20068;-83
2023/08/12 02:07:15;;;;;;;9.55;4.80;;;;;;;;;;5009276;28;20038;-83
2023/08/12 02:09:40;;;;;;;8.57;4.57;;;;;;;;;;5030802;28;20120;-84
2023/08/12 02:12:06;;;;;;;5.72;4.55;;;;;;;;;;5029953;28;20068;-84
2023/08/12 02:14:31;;;;;;;6.28;5.00;;;;;;;;;;5031331;28;20049;-84
2023/08/12 02:16:57;;;;;;;7.38;4.72;;;;;;;;;;5014012;28;20026;-83
2023/08/12 02:19:22;;;;;;;10.07;7.03;;;;;;;;;;5013473;28;20057;-84
2023/08/12 02:21:48;;;;;;;7.07;4.90;;;;;;;;;;5031973;28;20047;-84
2023/08/12 02:24:14;;;;;;;8.18;4.75;;;;;;;;;;5031141;28;20075;-84
2023/08/12 02:26:39;;;;;;;7.97;4.35;;;;;;;;;;5031082;28;20160;-84
2023/08/12 02:29:05;;;;;;;7.28;4.93;;;;;;;;;;5031343;28;20033;-84
2023/08/12 02:31:30;;;;;;;6.25;5.03;;;;;;;;;;5031465;28;20112;-84
2023/08/12 02:33:56;;;;;;;6.05;4.75;;;;;;;;;;5031139;28;20418;-84
2023/08/12 02:36:25;;;;;;;7.05;4.60;;;;;;;;;;5014204;28;20037;-84
2023/08/12 02:38:50;;;;;;;24.80;21.02;;;;;;;;;;5012571;28;20092;-84
2023/08/12 02:41:16;;;;;;;9.25;6.50;;;;;;;;;;5013708;28;20064;-84
2023/08/12 02:43:41;;;;;;;9.18;5.80;;;;;;;;;;5014242;28;20071;-83
2023/08/12 02:46:07;;;;;;;6.55;4.90;;;;;;;;;;5030550;28;20044;-84
2023/08/12 02:48:33;;;;;;;9.68;5.15;;;;;;;;;;5030996;28;20030;-82
2023/08/12 02:50:58;;;;;;;6.80;5.30;;;;;;;;;;5013432;28;20087;-84
2023/08/12 02:53:24;;;;;;;8.27;5.45;;;;;;;;;;5035289;28;20503;-83
2023/08/12 02:55:50;;;;;;;8.18;5.35;;;;;;;;;;5013503;28;20500;-83
2023/08/12 02:58:16;;;;;;;7.13;5.15;;;;;;;;;;5029794;28;20122;-83
2023/08/12 03:00:43;;;;;;;6.82;4.68;;;;;;;;;;5029356;28;20041;-84
2023/08/12 03:03:09;;;;;;;10.88;5.43;;;;;;;;;;5011313;28;20087;-84
2023/08/12 03:05:35;;;;;;;7.38;5.40;;;;;;;;;;5026600;28;20493;-84
2023/08/12 03:08:03;;;;;;;7.18;5.18;;;;;;;;;;5030186;28;20032;-84
2023/08/12 03:10:29;;;;;;;8.27;4.93;;;;;;;;;;5029659;28;20061;-84
2023/08/12 03:12:55;;;;;;;6.97;5.20;;;;;;;;;;5030362;28;20075;-84
2023/08/12 03:15:21;;;;;;;8.95;5.38;;;;;;;;;;5029797;28;20044;-84
2023/08/12 03:17:47;;;;;;;7.25;5.25;;;;;;;;;;5013553;28;20429;-84
2023/08/12 03:20:12;;;;;;;9.88;5.03;;;;;;;;;;5030012;28;20083;-83
2023/08/12 03:22:39;;;;;;;6.95;5.07;;;;;;;;;;5029788;28;20021;-84
2023/08/12 03:25:05;;;;;;;6.57;5.10;;;;;;;;;;4997400;28;20033;-84
2023/08/12 03:27:31;;;;;;;6.43;5.45;;;;;;;;;;5028807;28;20516;-84
2023/08/12 03:29:57;;;;;;;8.15;5.35;;;;;;;;;;5024933;28;20033;-84
2023/08/12 03:32:24;;;;;;;8.70;5.15;;;;;;;;;;5013247;28;20028;-84
2023/08/12 03:34:49;;;;;;;7.78;5.40;;;;;;;;;;5031535;28;20033;-85
2023/08/12 03:37:15;;;;;;;8.00;5.20;;;;;;;;;;5017083;28;20444;-84
2023/08/12 03:39:41;;;;;;;18.23;5.97;;;;;;;;;;5032841;28;20033;-84
2023/08/12 03:42:07;;;;;;;8.25;4.97;;;;;;;;;;5033801;28;20072;-84
2023/08/12 03:44:33;;;;;;;9.40;5.40;;;;;;;;;;4999545;28;20076;-84
2023/08/12 03:46:59;;;;;;;7.93;4.97;;;;;;;;;;5033980;28;20037;-84
2023/08/12 03:49:26;;;;;;;8.05;5.40;;;;;;;;;;5016928;28;20179;-84
2023/08/12 03:51:51;;;;;;;8.52;6.15;;;;;;;;;;5033134;28;20108;-84
2023/08/12 03:54:16;;;;;;;10.70;6.07;;;;;;;;;;5033547;28;20033;-84
2023/08/12 03:56:42;;;;;;;7.85;5.88;;;;;;;;;;5014410;28;20041;-84
2023/08/12 03:59:08;;;;;;;9.15;5.40;;;;;;;;;;4996330;28;20040;-84
2023/08/12 04:01:34;;;;;;;10.32;5.75;;;;;;;;;;5000500;28;20029;-84
2023/08/12 04:03:59;;;;;;;11.82;6.13;;;;;;;;;;5015442;28;20043;-84
2023/08/12 04:06:25;;;;;;;7.40;6.05;;;;;;;;;;5016927;28;20037;-84
2023/08/12 04:08:50;;;;;;;9.68;5.82;;;;;;;;;;5032946;28;20064;-84
2023/08/12 04:11:16;;;;;;;8.25;5.78;;;;;;;;;;4999977;28;20013;-85
2023/08/12 04:13:41;;;;;;;9.32;5.53;;;;;;;;;;5027991;28;20044;-83
2023/08/12 04:16:07;;;;;;;12.77;5.50;;;;;;;;;;5034093;28;20492;-84
2023/08/12 04:18:33;;;;;;;10.18;5.72;;;;;;;;;;5011891;28;20060;-84
2023/08/12 04:20:59;;;;;;;8.30;5.53;;;;;;;;;;5014847;28;20168;-84
2023/08/12 04:23:24;;;;;;;11.27;6.00;;;;;;;;;;5033661;28;20518;-84
2023/08/12 04:25:51;;;;;;;9.90;5.90;;;;;;;;;;5014326;28;20026;-84
2023/08/12 04:28:18;;;;;;;9.48;5.78;;;;;;;;;;5033034;28;20029;-83
2023/08/12 04:30:44;;;;;;;10.73;5.50;;;;;;;;;;5032729;28;20493;-84
2023/08/12 04:33:10;;;;;;;9.45;5.57;;;;;;;;;;5032825;28;20408;-84
2023/08/12 04:35:36;;;;;;;8.63;5.13;;;;;;;;;;5032667;28;20033;-84
2023/08/12 04:38:02;;;;;;;9.25;5.50;;;;;;;;;;5031390;28;20112;-84
2023/08/12 04:40:28;;;;;;;7.72;5.35;;;;;;;;;;5026229;28;20069;-84
2023/08/12 04:42:54;;;;;;;7.90;5.50;;;;;;;;;;5001604;28;20030;-83
2023/08/12 04:45:20;;;;;;;7.82;5.57;;;;;;;;;;5033669;28;20029;-84
2023/08/12 04:47:45;;;;;;;15.38;6.30;;;;;;;;;;5031627;28;20052;-85
2023/08/12 04:50:14;;;;;;;11.70;6.90;;;;;;;;;;5001018;28;20128;-84
2023/08/12 04:52:40;;;;;;;10.98;6.55;;;;;;;;;;5014919;28;20120;-84
2023/08/12 04:55:06;;;;;;;11.98;6.35;;;;;;;;;;5031930;28;20519;-85
2023/08/12 04:57:31;;;;;;;10.75;7.90;;;;;;;;;;5032009;28;20025;-85
2023/08/12 04:59:57;;;;;;;11.23;7.88;;;;;;;;;;5032599;28;20135;-83
2023/08/12 05:02:23;;;;;;;8.75;6.32;;;;;;;;;;5013589;28;20083;-83
2023/08/12 05:04:51;;;;;;;11.75;6.53;;;;;;;;;;5019024;28;20034;-84
2023/08/12 05:07:17;;;;;;;10.63;6.45;;;;;;;;;;5027805;28;20204;-84
2023/08/12 05:09:46;;;;;;;11.77;6.47;;;;;;;;;;5032292;28;20120;-84
2023/08/12 05:12:13;;;;;;;8.57;6.57;;;;;;;;;;5014063;28;20117;-84
2023/08/12 05:14:39;;;;;;;9.75;6.47;;;;;;;;;;5016285;28;20955;-84
2023/08/12 05:17:06;;;;;;;9.55;6.28;;;;;;;;;;5015482;28;20025;-82
2023/08/12 05:19:32;;;;;;;10.00;7.15;;;;;;;;;;5048080;28;20507;-84
2023/08/12 05:21:57;;;;;;;10.70;8.02;;;;;;;;;;5032401;28;20038;-84
2023/08/12 05:24:23;;;;;;;12.80;7.68;;;;;;;;;;5015268;28;20416;-85
2023/08/12 05:26:48;;;;;;;12.13;7.78;;;;;;;;;;5032589;28;20033;-84
2023/08/12 05:29:14;;;;;;;11.02;7.47;;;;;;;;;;5031319;28;20033;-84
2023/08/12 05:31:39;;;;;;;13.38;8.52;;;;;;;;;;5031451;28;20032;-83
2023/08/12 05:34:05;;;;;;;12.45;7.80;;;;;;;;;;5032077;28;20091;-84
2023/08/12 05:36:30;;;;;;;11.45;7.38;;;;;;;;;;5030318;28;20034;-84
2023/08/12 05:38:56;;;;;;;11.05;6.88;;;;;;;;;;5032445;28;20026;-84
2023/08/12 05:41:22;;;;;;;11.13;6.90;;;;;;;;;;5031030;28;20089;-84
2023/08/12 05:43:48;;;;;;;12.18;6.90;;;;;;;;;;5031287;28;20488;-85
2023/08/12 05:46:13;;;;;;;10.23;6.47;;;;;;;;;;5033098;28;20033;-85
2023/08/12 05:49:04;;;;;;;11.85;6.85;;;;;;;;;;5031213;28;20082;-85
2023/08/12 05:51:29;;;;;;;9.07;6.10;;;;;;;;;;5031336;28;20089;-85
2023/08/12 05:53:55;;;;;;;15.63;6.82;;;;;;;;;;5032285;28;20481;-84
2023/08/12 05:56:20;;;;;;;10.48;7.10;;;;;;;;;;5011656;28;20168;-85
2023/08/12 05:58:46;;;;;;;12.45;8.00;;;;;;;;;;5029071;28;20033;-84
2023/08/12 06:01:11;;;;;;;12.40;9.30;;;;;;;;;;5031774;28;20041;-84
2023/08/12 06:03:37;;;;;;;13.32;9.43;;;;;;;;;;5032431;28;20458;-84
2023/08/12 06:06:02;;;;;;;13.23;9.68;;;;;;;;;;5030587;28;20033;-85
2023/08/12 06:08:28;;;;;;;17.63;10.02;;;;;;;;;;5011295;28;20125;-85
2023/08/12 06:10:53;;;;;;;15.52;8.90;;;;;;;;;;5030145;28;20052;-85
2023/08/12 06:13:20;;;;;;;16.30;9.48;;;;;;;;;;5031819;28;20396;-85
2023/08/12 06:15:48;;;;;;;11.18;7.78;;;;;;;;;;5032110;28;20064;-85
2023/08/12 06:18:14;;;;;;;13.85;7.90;;;;;;;;;;5013929;28;20583;-85
2023/08/12 06:20:39;;;;;;;10.90;7.60;;;;;;;;;;5012687;28;20058;-84
2023/08/12 06:23:08;;;;;;;9.95;6.90;;;;;;;;;;5030717;28;20073;-85
2023/08/12 06:25:35;;;;;;;9.30;6.93;;;;;;;;;;5031569;28;20037;-85
2023/08/12 06:28:01;;;;;;;10.50;8.00;;;;;;;;;;5014127;28;20449;-85
2023/08/12 06:30:28;;;;;;;10.43;7.00;;;;;;;;;;5013592;28;20118;-85
2023/08/12 06:32:56;;;;;;;10.07;6.68;;;;;;;;;;5030092;28;20136;-85
2023/08/12 06:35:22;;;;;;;9.70;7.35;;;;;;;;;;5029187;28;20111;-85
2023/08/12 06:37:47;;;;;;;10.82;7.07;;;;;;;;;;5013918;28;20068;-84
2023/08/12 06:40:13;;;;;;;12.43;7.40;;;;;;;;;;5031211;28;20033;-84
2023/08/12 06:42:38;;;;;;;9.80;6.75;;;;;;;;;;5031408;28;20029;-85
2023/08/12 06:45:04;;;;;;;10.88;6.57;;;;;;;;;;5030931;28;20072;-84
2023/08/12 06:47:29;;;;;;;9.57;6.90;;;;;;;;;;5030943;28;20026;-84
2023/08/12 06:49:55;;;;;;;8.57;6.18;;;;;;;;;;5030694;28;20038;-83
2023/08/12 06:52:20;;;;;;;8.90;7.30;;;;;;;;;;5031292;28;20436;-85
2023/08/12 06:54:46;;;;;;;8.35;6.88;;;;;;;;;;5031255;28;20041;-84
2023/08/12 06:57:14;;;;;;;10.30;7.32;;;;;;;;;;5030394;28;20080;-86
2023/08/12 06:59:40;;;;;;;8.80;6.88;;;;;;;;;;5029864;28;20029;-84
2023/08/12 07:02:06;;;;;;;9.85;7.57;;;;;;;;;;5030719;28;20524;-85
2023/08/12 07:04:34;;;;;;;10.15;6.90;;;;;;;;;;5029800;28;20079;-84
2023/08/12 07:06:59;;;;;;;10.43;7.22;;;;;;;;;;5031685;28;20466;-86
2023/08/12 07:09:25;;;;;;;13.20;7.05;;;;;;;;;;5010283;28;20041;-85
2023/08/12 07:11:50;;;;;;;9.30;7.63;;;;;;;;;;5029739;28;20099;-85
2023/08/12 07:14:16;;;;;;;11.20;7.65;;;;;;;;;;5030718;28;20029;-85
2023/08/12 07:16:41;;;;;;;11.07;7.50;;;;;;;;;;5013479;28;20392;-83
2023/08/12 07:19:07;;;;;;;17.13;12.02;;;;;;;;;;5029467;28;20539;-85
2023/08/12 07:21:34;;;;;;;16.88;8.30;;;;;;;;;;5030183;28;20152;-85
2023/08/12 07:23:59;;;;;;;12.65;8.18;;;;;;;;;;5030251;28;20117;-85
2023/08/12 07:26:25;;;;;;;13.40;8.13;;;;;;;;;;5030911;28;20046;-85
2023/08/12 07:28:50;;;;;;;14.75;8.10;;;;;;;;;;5030015;28;20508;-87
2023/08/12 07:31:16;;;;;;;12.43;8.57;;;;;;;;;;5014107;28;20025;-85
2023/08/12 07:33:41;;;;;;;13.18;9.00;;;;;;;;;;5031096;28;20060;-85
2023/08/12 07:36:07;;;;;;;13.00;8.70;;;;;;;;;;5012904;28;20476;-85
2023/08/12 07:38:32;;;;;;;10.65;8.15;;;;;;;;;;5029557;28;20029;-84
2023/08/12 07:40:58;;;;;;;13.30;8.13;;;;;;;;;;5013052;28;20037;-85
2023/08/12 07:43:23;;;;;;;13.77;8.40;;;;;;;;;;5012896;28;20037;-84
2023/08/12 07:45:52;;;;;;;13.32;7.55;;;;;;;;;;5029644;28;20548;-83
2023/08/12 07:48:18;;;;;;;11.15;7.63;;;;;;;;;;5029488;28;20041;-86
2023/08/12 07:50:44;;;;;;;9.35;7.32;;;;;;;;;;5030704;28;20025;-84
2023/08/12 07:53:10;;;;;;;9.63;7.57;;;;;;;;;;5030858;28;20033;-84
2023/08/12 07:55:35;;;;;;;11.35;6.97;;;;;;;;;;5030128;28;20025;-84
2023/08/12 07:58:00;;;;;;;12.05;7.55;;;;;;;;;;5029181;28;20032;-84
2023/08/12 08:00:26;;;;;;;13.32;7.82;;;;;;;;;;5029030;28;20021;-85
2023/08/12 08:03:17;;;;;;;10.48;7.78;;;;;;;;;;5031084;28;20092;-84
2023/08/12 08:05:45;;;;;;;9.60;7.70;;;;;;;;;;5028368;28;20037;-84
2023/08/12 08:08:10;;;;;;;11.25;8.63;;;;;;;;;;5029307;28;20180;-84
2023/08/12 08:10:36;;;;;;;11.80;8.40;;;;;;;;;;5013476;28;20120;-84
2023/08/12 08:13:01;;;;;;;12.88;10.10;;;;;;;;;;5040883;28;20112;-85
2023/08/12 08:15:27;;;;;;;15.63;8.82;;;;;;;;;;5027109;28;20045;-84
2023/08/12 08:17:52;;;;;;;9.95;8.15;;;;;;;;;;5018762;28;20061;-84
2023/08/12 08:20:18;;;;;;;10.02;7.82;;;;;;;;;;5030903;28;20034;-85
2023/08/12 08:22:43;;;;;;;10.50;7.43;;;;;;;;;;5032260;28;20136;-84
2023/08/12 08:25:09;;;;;;;10.95;7.82;;;;;;;;;;5032234;28;20515;-84
2023/08/12 08:27:34;;;;;;;11.15;8.07;;;;;;;;;;5038021;28;20024;-84
2023/08/12 08:30:00;;;;;;;9.45;7.82;;;;;;;;;;5036418;28;20033;-85
2023/08/12 08:32:25;;;;;;;8.70;7.78;;;;;;;;;;5032710;28;20040;-85
2023/08/12 08:34:51;;;;;;;8.98;7.35;;;;;;;;;;5032943;28;20037;-84
2023/08/12 08:37:16;;;;;;;8.30;7.22;;;;;;;;;;5032773;28;20030;-84
2023/08/12 08:39:42;;;;;;;9.82;7.18;;;;;;;;;;5032288;28;20037;-84
2023/08/12 08:42:07;;;;;;;8.77;7.88;;;;;;;;;;5033627;28;20030;-85
2023/08/12 08:44:33;;;;;;;11.05;7.50;;;;;;;;;;5014509;28;20038;-86
2023/08/12 08:46:59;;;;;;;8.02;7.20;;;;;;;;;;5018561;28;20057;-84
2023/08/12 08:49:25;;;;;;;9.75;7.40;;;;;;;;;;5006964;28;20102;-84
2023/08/12 08:51:50;;;;;;;10.77;7.78;;;;;;;;;;5035841;28;20021;-84
2023/08/12 08:54:16;;;;;;;13.00;8.68;;;;;;;;;;5016617;28;20029;-85
2023/08/12 08:56:41;;;;;;;11.07;8.10;;;;;;;;;;5000463;28;20017;-86
2023/08/12 08:59:07;;;;;;;12.25;8.57;;;;;;;;;;5034561;28;20048;-85
2023/08/12 09:01:32;;;;;;;12.35;8.30;;;;;;;;;;5032831;28;20487;-85
2023/08/12 09:03:58;;;;;;;10.23;7.38;;;;;;;;;;5016412;28;20041;-85
2023/08/12 09:06:27;;;;;;;9.10;7.40;;;;;;;;;;5015833;28;20091;-86
2023/08/12 09:08:53;;;;;;;8.23;7.43;;;;;;;;;;5015729;28;20480;-85
2023/08/12 09:11:18;;;;;;;10.73;7.65;;;;;;;;;;5000192;28;20041;-85
2023/08/12 09:13:44;;;;;;;11.90;8.30;;;;;;;;;;5010542;28;20024;-85
2023/08/12 09:16:10;;;;;;;10.98;8.43;;;;;;;;;;5034837;28;20037;-85
2023/08/12 09:18:36;;;;;;;10.80;7.93;;;;;;;;;;5032903;28;20088;-84
2023/08/12 09:21:02;;;;;;;13.07;8.63;;;;;;;;;;5027387;28;20046;-84
2023/08/12 09:23:27;;;;;;;10.10;7.88;;;;;;;;;;5030883;28;20052;-84
2023/08/12 09:25:53;;;;;;;9.90;8.15;;;;;;;;;;5002047;28;20404;-85
2023/08/12 09:28:18;;;;;;;10.40;8.07;;;;;;;;;;5032984;28;20030;-85
2023/08/12 09:30:49;;;;;;;10.30;7.70;;;;;;;;;;5023679;28;20029;-84
2023/08/12 09:33:15;;;;;;;9.65;8.25;;;;;;;;;;5016512;28;20041;-85
2023/08/12 09:35:41;;;;;;;12.23;8.63;;;;;;;;;;5033770;28;20045;-85
2023/08/12 09:38:12;;;;;;;11.70;9.05;;;;;;;;;;5032422;28;20032;-85
2023/08/12 09:40:38;;;;;;;12.35;9.15;;;;;;;;;;5000055;28;20068;-84
2023/08/12 09:43:04;;;;;;;11.35;9.02;;;;;;;;;;5031056;28;20496;-84
2023/08/12 09:45:30;;;;;;;10.70;8.52;;;;;;;;;;5033318;28;20414;-85
2023/08/12 09:47:55;;;;;;;11.35;8.50;;;;;;;;;;5028372;28;20464;-85
2023/08/12 09:50:26;;;;;;;9.85;8.07;;;;;;;;;;5032931;28;20041;-84
2023/08/12 09:52:52;;;;;;;11.20;8.50;;;;;;;;;;5044421;28;20034;-85
2023/08/12 09:55:18;;;;;;;11.75;9.00;;;;;;;;;;5023572;28;20131;-84
2023/08/12 09:57:44;;;;;;;11.23;8.82;;;;;;;;;;5034400;28;20040;-85
2023/08/12 10:00:16;;;;;;;14.52;8.35;;;;;;;;;;5040374;28;20064;-86
2023/08/12 10:02:46;;;;;;;11.55;8.48;;;;;;;;;;5017712;28;20037;-85
2023/08/12 10:05:12;;;;;;;10.25;8.40;;;;;;;;;;5011448;28;20123;-85
2023/08/12 10:07:37;;;;;;;12.85;8.73;;;;;;;;;;5024912;28;20040;-84
2023/08/12 10:10:03;;;;;;;10.50;8.30;;;;;;;;;;5031434;28;20025;-85
2023/08/12 10:12:31;;;;;;;11.40;7.97;;;;;;;;;;5029307;28;20132;-85
2023/08/12 10:14:56;;;;;;;11.07;8.70;;;;;;;;;;5031014;28;20506;-85
2023/08/12 10:17:21;;;;;;;12.13;9.23;;;;;;;;;;5030840;28;20025;-85
2023/08/12 10:19:47;;;;;;;12.45;8.98;;;;;;;;;;5014655;28;20053;-85
2023/08/12 10:22:14;;;;;;;14.88;9.98;;;;;;;;;;5031673;28;20512;-84
2023/08/12 10:24:40;;;;;;;11.55;8.70;;;;;;;;;;5030318;28;20508;-85
2023/08/12 10:27:05;;;;;;;11.15;8.48;;;;;;;;;;5030122;28;20107;-83
2023/08/12 10:29:31;;;;;;;11.77;9.52;;;;;;;;;;5030040;28;20022;-84
2023/08/12 10:31:56;;;;;;;11.07;8.98;;;;;;;;;;5029751;28;20037;-83
2023/08/12 10:34:22;;;;;;;12.30;9.57;;;;;;;;;;5030596;28;20025;-84
2023/08/12 10:36:48;;;;;;;12.38;9.32;;;;;;;;;;5010336;28;20036;-84
2023/08/12 10:39:14;;;;;;;11.35;8.90;;;;;;;;;;4996964;28;20108;-84
2023/08/12 10:41:43;;;;;;;13.38;8.95;;;;;;;;;;5029641;28;20408;-84
2023/08/12 10:44:08;;;;;;;11.88;9.27;;;;;;;;;;5029538;28;20448;-84
2023/08/12 10:46:34;;;;;;;11.68;9.63;;;;;;;;;;5030709;28;20045;-84
2023/08/12 10:49:05;;;;;;;10.85;9.13;;;;;;;;;;5030462;28;20060;-84
2023/08/12 10:51:46;;;;;;;10.40;8.90;;;;;;;;;;5029431;28;20076;-84
2023/08/12 10:54:18;;;;;;;12.73;8.82;;;;;;;;;;5029919;28;20029;-84
2023/08/12 10:57:05;;;;;;;9.75;8.75;;;;;;;;;;5030257;28;20040;-84
2023/08/12 10:59:46;;;;;;;11.82;8.85;;;;;;;;;;5060791;28;20428;-84
2023/08/12 11:02:32;;;;;;;11.57;8.20;;;;;;;;;;5032860;28;20563;-84
2023/08/12 11:05:02;;;;;;;9.27;8.32;;;;;;;;;;5031021;28;20040;-84
2023/08/12 11:07:50;;;;;;;11.38;8.55;;;;;;;;;;5031028;28;20396;-84
2023/08/12 11:10:16;;;;;;;11.65;9.35;;;;;;;;;;5028496;28;20515;-84
2023/08/12 11:12:47;;;;;;;11.43;9.10;;;;;;;;;;5045464;28;20021;-84
2023/08/12 11:15:12;;;;;;;10.82;9.02;;;;;;;;;;5013439;28;20030;-84
2023/08/12 11:17:41;;;;;;;10.15;8.00;;;;;;;;;;5030238;28;20029;-84
2023/08/12 11:20:07;;;;;;;12.90;9.45;;;;;;;;;;5011560;28;20124;-83
2023/08/12 11:22:36;;;;;;;11.10;8.63;;;;;;;;;;5012863;28;20128;-84
2023/08/12 11:25:02;;;;;;;10.00;7.63;;;;;;;;;;5029169;28;20528;-84
2023/08/12 11:27:27;;;;;;;11.70;9.35;;;;;;;;;;5029943;28;20032;-84
2023/08/12 11:29:53;;;;;;;11.10;8.02;;;;;;;;;;5028846;28;20045;-84
2023/08/12 11:32:19;;;;;;;10.40;8.32;;;;;;;;;;5029540;28;20140;-85
2023/08/12 11:34:44;;;;;;;12.45;9.00;;;;;;;;;;5045683;28;20061;-84
2023/08/12 11:37:10;;;;;;;12.63;9.27;;;;;;;;;;5030423;28;20049;-85
2023/08/12 11:39:35;;;;;;;13.85;8.93;;;;;;;;;;5028636;28;20037;-85
2023/08/12 11:42:01;;;;;;;11.13;8.40;;;;;;;;;;5029046;28;20116;-84
2023/08/12 11:44:26;;;;;;;10.38;8.48;;;;;;;;;;5030100;28;20037;-84
2023/08/12 11:46:52;;;;;;;13.77;8.95;;;;;;;;;;5030403;28;20492;-85
2023/08/12 11:49:17;;;;;;;11.73;8.63;;;;;;;;;;5021592;28;20460;-85
2023/08/12 11:51:43;;;;;;;13.60;9.25;;;;;;;;;;5025911;28;20021;-85
2023/08/12 11:54:09;;;;;;;12.73;8.48;;;;;;;;;;5009875;28;20034;-85
2023/08/12 11:56:34;;;;;;;11.70;9.80;;;;;;;;;;5034001;28;20036;-84
2023/08/12 11:59:00;;;;;;;10.70;9.50;;;;;;;;;;5034587;28;20037;-85
2023/08/12 12:01:27;;;;;;;12.27;9.20;;;;;;;;;;5032450;28;20029;-84
2023/08/12 12:03:53;;;;;;;14.18;9.50;;;;;;;;;;5013372;28;20084;-84
2023/08/12 12:06:32;;;;;;;10.82;8.93;;;;;;;;;;5020267;28;20029;-85
2023/08/12 12:09:04;;;;;;;10.27;9.25;;;;;;;;;;5032973;28;20052;-85
2023/08/12 12:11:30;;;;;;;12.00;8.95;;;;;;;;;;5032814;28;20120;-85
2023/08/12 12:13:55;;;;;;;10.38;9.23;;;;;;;;;;5033710;28;20100;-84
2023/08/12 12:16:21;;;;;;;11.07;9.18;;;;;;;;;;5032771;28;20060;-85
2023/08/12 12:18:46;;;;;;;10.25;8.20;;;;;;;;;;5033556;28;20541;-85
2023/08/12 12:21:12;;;;;;;11.32;9.48;;;;;;;;;;5040206;28;20096;-84
2023/08/12 12:23:37;;;;;;;11.82;9.43;;;;;;;;;;5036821;28;20065;-84
2023/08/12 12:26:03;;;;;;;11.45;9.30;;;;;;;;;;5032385;28;20036;-84
2023/08/12 12:28:29;;;;;;;9.70;8.25;;;;;;;;;;5033512;28;20029;-85
2023/08/12 12:30:54;;;;;;;11.48;8.55;;;;;;;;;;5032486;28;20396;-85
2023/08/12 12:33:20;;;;;;;10.10;8.75;;;;;;;;;;5033845;28;20026;-85
2023/08/12 12:35:45;;;;;;;15.80;9.05;;;;;;;;;;5033966;28;20037;-84
2023/08/12 12:38:11;;;;;;;9.82;8.52;;;;;;;;;;5032166;28;20030;-84
2023/08/12 12:40:37;;;;;;;11.38;8.18;;;;;;;;;;5033690;28;20116;-84
2023/08/12 12:43:03;;;;;;;10.82;7.60;;;;;;;;;;5032306;28;20029;-84
2023/08/12 12:45:29;;;;;;;9.77;7.53;;;;;;;;;;5016085;28;20044;-84
2023/08/12 12:47:54;;;;;;;10.27;8.18;;;;;;;;;;5015495;28;20107;-85
2023/08/12 12:50:20;;;;;;;10.73;8.07;;;;;;;;;;5033501;28;20044;-84
2023/08/12 12:52:45;;;;;;;9.40;7.05;;;;;;;;;;5015557;28;20014;-85
2023/08/12 12:55:11;;;;;;;10.30;7.30;;;;;;;;;;5031668;28;20099;-85
2023/08/12 12:57:36;;;;;;;16.25;7.97;;;;;;;;;;5015264;28;20396;-85
2023/08/12 13:00:04;;;;;;;9.77;6.75;;;;;;;;;;5032034;28;20551;-85
2023/08/12 13:02:29;;;;;;;8.32;6.50;;;;;;;;;;5032963;28;20033;-84
2023/08/12 13:04:55;;;;;;;8.10;6.53;;;;;;;;;;5031192;28;20048;-85
2023/08/12 13:07:21;;;;;;;9.48;6.78;;;;;;;;;;5030960;28;20037;-85
2023/08/12 13:09:46;;;;;;;7.22;6.28;;;;;;;;;;5026696;28;20037;-85
2023/08/12 13:12:12;;;;;;;9.23;6.63;;;;;;;;;;5031350;28;20029;-85
2023/08/12 13:14:37;;;;;;;10.38;6.63;;;;;;;;;;5031606;28;20120;-85
2023/08/12 13:17:03;;;;;;;7.32;6.18;;;;;;;;;;5014895;28;20029;-85
2023/08/12 13:19:28;;;;;;;8.02;6.32;;;;;;;;;;5015279;28;20144;-85
2023/08/12 13:21:54;;;;;;;8.27;5.93;;;;;;;;;;5031697;28;20501;-85
2023/08/12 13:24:20;;;;;;;6.95;5.70;;;;;;;;;;5031890;28;20136;-84
2023/08/12 13:26:45;;;;;;;7.43;5.60;;;;;;;;;;5031505;28;20548;-85
2023/08/12 13:29:11;;;;;;;7.50;6.07;;;;;;;;;;5031200;28;20090;-84
2023/08/12 13:31:36;;;;;;;7.57;6.30;;;;;;;;;;4998807;28;20029;-84
2023/08/12 13:34:02;;;;;;;8.85;6.43;;;;;;;;;;5032791;28;20040;-84
2023/08/12 13:36:30;;;;;;;10.02;6.85;;;;;;;;;;5026005;28;20037;-84
2023/08/12 13:38:58;;;;;;;9.95;6.88;;;;;;;;;;5032142;28;20041;-84
2023/08/12 13:41:27;;;;;;;7.72;6.32;;;;;;;;;;5032091;28;20041;-83
2023/08/12 13:43:53;;;;;;;9.45;6.80;;;;;;;;;;5031975;28;20040;-85
2023/08/12 13:46:21;;;;;;;7.95;6.45;;;;;;;;;;5014204;28;20513;-85
2023/08/12 13:48:48;;;;;;;7.90;7.10;;;;;;;;;;5031803;28;20128;-84
2023/08/12 13:51:35;;;;;;;8.10;6.97;;;;;;;;;;5030524;28;20022;-85
2023/08/12 13:54:01;;;;;;;10.35;7.72;;;;;;;;;;5030435;28;20034;-85
2023/08/12 13:56:27;;;;;;;8.80;7.10;;;;;;;;;;5010571;28;20038;-84
2023/08/12 13:58:53;;;;;;;9.45;7.45;;;;;;;;;;5030412;28;20041;-85
2023/08/12 14:01:19;;;;;;;8.70;7.45;;;;;;;;;;5032237;28;20539;-85
2023/08/12 14:03:46;;;;;;;12.50;8.00;;;;;;;;;;5031449;28;20041;-85
2023/08/12 14:06:22;;;;;;;11.30;7.47;;;;;;;;;;5015319;28;20087;-84
2023/08/12 14:08:52;;;;;;;10.48;7.88;;;;;;;;;;5030233;28;20045;-85
2023/08/12 14:11:20;;;;;;;12.27;8.40;;;;;;;;;;5030057;28;20022;-85
2023/08/12 14:13:49;;;;;;;13.38;8.18;;;;;;;;;;5014351;28;20390;-85
2023/08/12 14:16:14;;;;;;;12.30;7.97;;;;;;;;;;5031759;28;20032;-85
2023/08/12 14:18:40;;;;;;;13.55;8.82;;;;;;;;;;5013108;28;20054;-85
2023/08/12 14:21:05;;;;;;;10.98;8.02;;;;;;;;;;5031444;28;20116;-85
2023/08/12 14:23:31;;;;;;;11.82;7.93;;;;;;;;;;5031691;28;20064;-85
2023/08/12 14:25:56;;;;;;;10.65;8.35;;;;;;;;;;5030114;28;20091;-85
2023/08/12 14:28:22;;;;;;;17.48;8.02;;;;;;;;;;5013816;28;20043;-84
2023/08/12 14:30:47;;;;;;;13.98;7.90;;;;;;;;;;5013855;28;20044;-85